Flughafen Bremen

Aus VATSIM Germany
Dies ist die bestätigte sowie die neueste Version dieser Seite.
Wechseln zu:Navigation, Suche
UnderCon icon.svg.pngDieser Artikel ist noch im Aufbau. Der Artikel kann daher unvollständig sein oder Fehler enthalten!


Bremen Airport
ICAO / IATA EDDW / BRE
Koordinaten N53°2′51″  E008°47′12″
Höhe 4 m / 14 ft
Wetter EDDW 190550Z 19006KT 9999 FEW024 11/09 Q1017 NOSIG
Pisten
Platzfrequenzen
Nur für Flugsimulationszwecke!



Informationen für Piloten und Lotsen
Pilotenbriefing

Standard Operating Procedures (SOP)

Letters of Agreement (LoAs)

Airport Charts